Meteo Giornale » Osservazioni meteo Italia » Falconara

ore: 07:50 - Osservazioni Meteo Falconara
Lat. 43° 37' N Lon. 13° 22' E Alt. 12 metri s.l.m.

sereno Europe/Rome

14 °C

Sereno

Temp. 24 Ore

12 °C

17 °C

Nord

5.5 Km/h

Dew point 10 °C

Umidità 76 %

Visibilità  10 Km

Il sole sorge alle ore 05:56

Il sole tramonta alle ore 18:27

Data e Ora Cielo e Fenomeni T °C DP °C Um. % Pres. hPa Vis. km Vento km/h
Oggi h: 07:50 sereno Sereno 14 10 76 1018 10 N 5.5
Oggi h: 06:50 sereno Sereno 12 11 93 1017 10 S 7.4
Oggi h: 05:50 nuvoloso Nuvoloso 12 11 93 1017 10 N 5.5
Oggi h: 04:50 nuvoloso Nuvoloso 12 10 87 1017 10 N/NE 9.3
Oggi h: 03:50 nuvoloso Nuvoloso 13 9 76 1017 10 N 5.5
Oggi h: 03:50 nuvoloso Nuvoloso 15 9 67 1017 10 O 13
Oggi h: 01:50 nuvoloso Nuvoloso 13 10 81 1017 10 N 3.7
Oggi h: 00:50 nuvoloso Nuvoloso 13 9 76 1017 8 N 1.8
Ieri h: 23:50 poco_nuvoloso Poco Nuvoloso 13 8 71 1017 8 N 5.5
Ieri h: 22:50 poco_nuvoloso Poco Nuvoloso 13 8 71 1017 8 N 5.5
Ieri h: 21:50 sereno Sereno 14 7 62 1017 8 N 5.5
Ieri h: 20:50 sereno Sereno 12 8 76 1017 8 N 5.5
Ieri h: 19:50 sereno Sereno 13 9 76 1017 8 N 3.7
Ieri h: 18:50 sereno Sereno 13 8 71 1017 9 N 3.7
Ieri h: 17:50 sereno Sereno 15 8 62 1017 9 E/NE 9.3
Ieri h: 16:50 sereno Sereno 15 10 72 1018 9 N/NE 13
Ieri h: 15:50 sereno Sereno 16 9 63 1019 9 N/NE 9.3
Ieri h: 14:50 sereno Sereno 16 10 67 1020 10 N/NE 13
Ieri h: 13:50 foschia Foschia 15 11 76 1020 5 N/NE 13
Ieri h: 12:50 foschia Foschia 16 12 77 1021 5 N 13
Ieri h: 11:50 sereno Sereno 16 12 77 1022 6 N/NO 14.8
Ieri h: 10:50 sereno Sereno 16 11 72 1022 6 N 14.8
Ieri h: 09:50 sereno Sereno 17 11 67 1022 8 O 7.4
Ieri h: 08:50 sereno Sereno 14 11 82 1022 8 N 5.5